sensor_id;sensor_type;location;lat;lon;timestamp;P1;durP1;ratioP1;P2;durP2;ratioP2
71856;SDS011;63344;46.980;28.882;2023-07-09T00:02:00;4.78;;;2.20;;
71856;SDS011;63344;46.980;28.882;2023-07-09T00:04:28;3.97;;;2.40;;
71856;SDS011;63344;46.980;28.882;2023-07-09T00:06:57;2.70;;;2.22;;
71856;SDS011;63344;46.980;28.882;2023-07-09T00:09:28;4.43;;;1.95;;
71856;SDS011;63344;46.980;28.882;2023-07-09T00:11:56;3.65;;;2.47;;
71856;SDS011;63344;46.980;28.882;2023-07-09T00:14:24;4.75;;;2.33;;
71856;SDS011;63344;46.980;28.882;2023-07-09T00:16:51;8.02;;;2.08;;
71856;SDS011;63344;46.980;28.882;2023-07-09T00:19:19;3.58;;;2.10;;
71856;SDS011;63344;46.980;28.882;2023-07-09T00:21:50;4.03;;;2.38;;
71856;SDS011;63344;46.980;28.882;2023-07-09T00:24:20;3.92;;;2.22;;
71856;SDS011;63344;46.980;28.882;2023-07-09T00:26:50;2.78;;;1.70;;
71856;SDS011;63344;46.980;28.882;2023-07-09T00:29:18;5.60;;;1.50;;
71856;SDS011;63344;46.980;28.882;2023-07-09T00:31:45;3.33;;;2.20;;
71856;SDS011;63344;46.980;28.882;2023-07-09T00:34:14;5.75;;;2.00;;
71856;SDS011;63344;46.980;28.882;2023-07-09T00:36:44;4.22;;;2.20;;
71856;SDS011;63344;46.980;28.882;2023-07-09T00:39:19;3.30;;;2.00;;
71856;SDS011;63344;46.980;28.882;2023-07-09T00:41:49;4.45;;;2.13;;
71856;SDS011;63344;46.980;28.882;2023-07-09T00:44:31;3.50;;;2.22;;
71856;SDS011;63344;46.980;28.882;2023-07-09T00:49:31;3.63;;;1.38;;
71856;SDS011;63344;46.980;28.882;2023-07-09T00:52:13;1.80;;;1.45;;
71856;SDS011;63344;46.980;28.882;2023-07-09T00:54:46;3.58;;;1.77;;
71856;SDS011;63344;46.980;28.882;2023-07-09T00:57:15;4.55;;;1.95;;
71856;SDS011;63344;46.980;28.882;2023-07-09T00:59:46;4.97;;;1.95;;
71856;SDS011;63344;46.980;28.882;2023-07-09T01:02:17;6.28;;;2.45;;
71856;SDS011;63344;46.980;28.882;2023-07-09T01:04:54;5.13;;;2.88;;
71856;SDS011;63344;46.980;28.882;2023-07-09T01:07:28;3.35;;;2.10;;
71856;SDS011;63344;46.980;28.882;2023-07-09T01:12:24;3.85;;;1.70;;
71856;SDS011;63344;46.980;28.882;2023-07-09T01:14:53;2.55;;;1.65;;
71856;SDS011;63344;46.980;28.882;2023-07-09T01:17:27;2.85;;;2.05;;
71856;SDS011;63344;46.980;28.882;2023-07-09T01:19:55;4.28;;;2.22;;
71856;SDS011;63344;46.980;28.882;2023-07-09T01:22:25;3.80;;;2.13;;
71856;SDS011;63344;46.980;28.882;2023-07-09T01:27:32;2.25;;;1.67;;
71856;SDS011;63344;46.980;28.882;2023-07-09T01:30:06;2.55;;;2.05;;
71856;SDS011;63344;46.980;28.882;2023-07-09T01:32:37;2.83;;;2.10;;
71856;SDS011;63344;46.980;28.882;2023-07-09T01:35:05;3.17;;;2.00;;
71856;SDS011;63344;46.980;28.882;2023-07-09T01:37:35;3.15;;;1.60;;
71856;SDS011;63344;46.980;28.882;2023-07-09T01:40:04;3.47;;;2.03;;
71856;SDS011;63344;46.980;28.882;2023-07-09T01:42:54;6.45;;;2.83;;
71856;SDS011;63344;46.980;28.882;2023-07-09T01:45:25;3.10;;;2.10;;
71856;SDS011;63344;46.980;28.882;2023-07-09T01:47:52;2.22;;;1.73;;
71856;SDS011;63344;46.980;28.882;2023-07-09T01:50:23;7.05;;;2.35;;
71856;SDS011;63344;46.980;28.882;2023-07-09T01:52:52;3.08;;;2.42;;
71856;SDS011;63344;46.980;28.882;2023-07-09T01:57:48;4.05;;;2.40;;
71856;SDS011;63344;46.980;28.882;2023-07-09T02:00:18;3.08;;;2.20;;
71856;SDS011;63344;46.980;28.882;2023-07-09T02:02:46;5.93;;;2.60;;
71856;SDS011;63344;46.980;28.882;2023-07-09T02:05:15;4.97;;;2.05;;
71856;SDS011;63344;46.980;28.882;2023-07-09T02:07:45;7.47;;;3.15;;
71856;SDS011;63344;46.980;28.882;2023-07-09T02:10:14;5.10;;;2.65;;
71856;SDS011;63344;46.980;28.882;2023-07-09T02:12:43;5.75;;;2.63;;
71856;SDS011;63344;46.980;28.882;2023-07-09T02:15:12;4.60;;;1.75;;
71856;SDS011;63344;46.980;28.882;2023-07-09T02:17:40;6.43;;;2.35;;
71856;SDS011;63344;46.980;28.882;2023-07-09T02:20:09;3.17;;;2.17;;
71856;SDS011;63344;46.980;28.882;2023-07-09T02:22:38;3.88;;;2.38;;
71856;SDS011;63344;46.980;28.882;2023-07-09T02:25:06;6.18;;;2.13;;
71856;SDS011;63344;46.980;28.882;2023-07-09T02:27:35;2.58;;;1.60;;
71856;SDS011;63344;46.980;28.882;2023-07-09T02:30:05;4.35;;;1.90;;
71856;SDS011;63344;46.980;28.882;2023-07-09T02:32:34;5.13;;;2.22;;
71856;SDS011;63344;46.980;28.882;2023-07-09T02:35:02;3.10;;;1.77;;
71856;SDS011;63344;46.980;28.882;2023-07-09T02:37:29;3.70;;;2.20;;
71856;SDS011;63344;46.980;28.882;2023-07-09T02:39:56;3.33;;;2.30;;
71856;SDS011;63344;46.980;28.882;2023-07-09T02:42:24;6.00;;;2.42;;
71856;SDS011;63344;46.980;28.882;2023-07-09T02:44:51;4.13;;;2.35;;
71856;SDS011;63344;46.980;28.882;2023-07-09T02:47:19;4.93;;;1.92;;
71856;SDS011;63344;46.980;28.882;2023-07-09T02:49:46;4.28;;;2.40;;
71856;SDS011;63344;46.980;28.882;2023-07-09T02:52:15;4.40;;;2.22;;
71856;SDS011;63344;46.980;28.882;2023-07-09T02:54:43;3.28;;;1.80;;
71856;SDS011;63344;46.980;28.882;2023-07-09T02:57:10;2.30;;;1.90;;
71856;SDS011;63344;46.980;28.882;2023-07-09T02:59:38;2.83;;;2.00;;
71856;SDS011;63344;46.980;28.882;2023-07-09T03:02:05;4.47;;;2.92;;
71856;SDS011;63344;46.980;28.882;2023-07-09T03:04:32;7.35;;;2.67;;
71856;SDS011;63344;46.980;28.882;2023-07-09T03:07:00;2.15;;;1.95;;
71856;SDS011;63344;46.980;28.882;2023-07-09T03:09:28;4.50;;;2.58;;
71856;SDS011;63344;46.980;28.882;2023-07-09T03:11:56;4.65;;;2.55;;
71856;SDS011;63344;46.980;28.882;2023-07-09T03:14:23;9.70;;;2.42;;
71856;SDS011;63344;46.980;28.882;2023-07-09T03:16:52;4.57;;;2.78;;
71856;SDS011;63344;46.980;28.882;2023-07-09T03:19:19;2.90;;;2.03;;
71856;SDS011;63344;46.980;28.882;2023-07-09T03:21:47;3.60;;;2.50;;
71856;SDS011;63344;46.980;28.882;2023-07-09T03:24:14;2.58;;;2.03;;
71856;SDS011;63344;46.980;28.882;2023-07-09T03:26:46;5.65;;;2.25;;
71856;SDS011;63344;46.980;28.882;2023-07-09T03:29:14;5.25;;;2.53;;
71856;SDS011;63344;46.980;28.882;2023-07-09T03:31:44;4.70;;;2.20;;
71856;SDS011;63344;46.980;28.882;2023-07-09T03:34:11;4.15;;;2.92;;
71856;SDS011;63344;46.980;28.882;2023-07-09T03:36:41;3.70;;;2.33;;
71856;SDS011;63344;46.980;28.882;2023-07-09T03:39:08;4.65;;;2.80;;
71856;SDS011;63344;46.980;28.882;2023-07-09T03:41:36;4.80;;;2.58;;
71856;SDS011;63344;46.980;28.882;2023-07-09T03:44:03;2.80;;;2.50;;
71856;SDS011;63344;46.980;28.882;2023-07-09T03:46:31;7.05;;;2.75;;
71856;SDS011;63344;46.980;28.882;2023-07-09T03:48:59;4.35;;;2.55;;
71856;SDS011;63344;46.980;28.882;2023-07-09T03:51:28;3.85;;;2.40;;
71856;SDS011;63344;46.980;28.882;2023-07-09T03:53:55;6.30;;;2.90;;
71856;SDS011;63344;46.980;28.882;2023-07-09T03:56:22;3.63;;;3.00;;
71856;SDS011;63344;46.980;28.882;2023-07-09T03:58:50;4.10;;;2.70;;
71856;SDS011;63344;46.980;28.882;2023-07-09T04:01:17;4.78;;;2.38;;
71856;SDS011;63344;46.980;28.882;2023-07-09T04:03:44;4.30;;;2.30;;
71856;SDS011;63344;46.980;28.882;2023-07-09T04:06:13;7.35;;;2.05;;
71856;SDS011;63344;46.980;28.882;2023-07-09T04:08:43;3.22;;;2.03;;
71856;SDS011;63344;46.980;28.882;2023-07-09T04:11:13;7.07;;;2.30;;
71856;SDS011;63344;46.980;28.882;2023-07-09T04:13:41;4.40;;;2.60;;
71856;SDS011;63344;46.980;28.882;2023-07-09T04:16:09;3.92;;;2.72;;
71856;SDS011;63344;46.980;28.882;2023-07-09T04:18:37;3.85;;;2.60;;
71856;SDS011;63344;46.980;28.882;2023-07-09T04:21:05;5.05;;;2.63;;
71856;SDS011;63344;46.980;28.882;2023-07-09T04:23:33;3.83;;;2.78;;
71856;SDS011;63344;46.980;28.882;2023-07-09T04:26:02;3.08;;;2.60;;
71856;SDS011;63344;46.980;28.882;2023-07-09T04:28:31;4.32;;;2.65;;
71856;SDS011;63344;46.980;28.882;2023-07-09T04:30:59;3.83;;;3.28;;
71856;SDS011;63344;46.980;28.882;2023-07-09T04:33:26;3.90;;;2.80;;
71856;SDS011;63344;46.980;28.882;2023-07-09T04:38:22;3.40;;;3.10;;
71856;SDS011;63344;46.980;28.882;2023-07-09T04:40:52;5.47;;;3.28;;
71856;SDS011;63344;46.980;28.882;2023-07-09T04:43:19;2.65;;;2.03;;
71856;SDS011;63344;46.980;28.882;2023-07-09T04:45:47;4.13;;;3.08;;
71856;SDS011;63344;46.980;28.882;2023-07-09T04:48:14;4.38;;;3.63;;
71856;SDS011;63344;46.980;28.882;2023-07-09T04:50:42;3.67;;;3.03;;
71856;SDS011;63344;46.980;28.882;2023-07-09T04:53:10;3.50;;;3.20;;
71856;SDS011;63344;46.980;28.882;2023-07-09T04:55:38;7.68;;;3.00;;
71856;SDS011;63344;46.980;28.882;2023-07-09T04:58:06;3.08;;;2.42;;
71856;SDS011;63344;46.980;28.882;2023-07-09T05:00:33;8.20;;;2.78;;
71856;SDS011;63344;46.980;28.882;2023-07-09T05:03:01;4.55;;;2.85;;
71856;SDS011;63344;46.980;28.882;2023-07-09T05:05:31;5.60;;;2.72;;
71856;SDS011;63344;46.980;28.882;2023-07-09T05:07:58;2.97;;;2.67;;
71856;SDS011;63344;46.980;28.882;2023-07-09T05:10:26;4.38;;;2.58;;
71856;SDS011;63344;46.980;28.882;2023-07-09T05:12:54;4.30;;;3.00;;
71856;SDS011;63344;46.980;28.882;2023-07-09T05:15:23;5.30;;;3.03;;
71856;SDS011;63344;46.980;28.882;2023-07-09T05:17:50;5.75;;;2.53;;
71856;SDS011;63344;46.980;28.882;2023-07-09T05:20:19;6.28;;;2.72;;
71856;SDS011;63344;46.980;28.882;2023-07-09T05:22:49;3.25;;;2.00;;
71856;SDS011;63344;46.980;28.882;2023-07-09T05:25:18;4.00;;;2.78;;
71856;SDS011;63344;46.980;28.882;2023-07-09T05:27:45;4.97;;;2.80;;
71856;SDS011;63344;46.980;28.882;2023-07-09T05:30:12;4.70;;;2.67;;
71856;SDS011;63344;46.980;28.882;2023-07-09T05:32:40;4.68;;;2.70;;
71856;SDS011;63344;46.980;28.882;2023-07-09T05:35:10;4.30;;;2.38;;
71856;SDS011;63344;46.980;28.882;2023-07-09T05:37:37;6.05;;;2.50;;
71856;SDS011;63344;46.980;28.882;2023-07-09T05:40:06;3.63;;;2.70;;
71856;SDS011;63344;46.980;28.882;2023-07-09T05:42:34;3.97;;;2.80;;
71856;SDS011;63344;46.980;28.882;2023-07-09T05:45:03;5.03;;;2.90;;
71856;SDS011;63344;46.980;28.882;2023-07-09T05:47:31;5.13;;;3.40;;
71856;SDS011;63344;46.980;28.882;2023-07-09T05:50:00;6.03;;;3.17;;
71856;SDS011;63344;46.980;28.882;2023-07-09T05:52:27;3.85;;;2.55;;
71856;SDS011;63344;46.980;28.882;2023-07-09T05:54:57;5.82;;;2.63;;
71856;SDS011;63344;46.980;28.882;2023-07-09T05:57:26;3.97;;;2.67;;
71856;SDS011;63344;46.980;28.882;2023-07-09T05:59:53;4.32;;;3.00;;
71856;SDS011;63344;46.980;28.882;2023-07-09T06:02:21;6.72;;;2.33;;
71856;SDS011;63344;46.980;28.882;2023-07-09T06:04:48;4.10;;;2.42;;
71856;SDS011;63344;46.980;28.882;2023-07-09T06:07:19;2.95;;;2.65;;
71856;SDS011;63344;46.980;28.882;2023-07-09T06:09:49;3.60;;;2.65;;
71856;SDS011;63344;46.980;28.882;2023-07-09T06:12:17;5.47;;;3.10;;
71856;SDS011;63344;46.980;28.882;2023-07-09T06:14:46;4.45;;;3.03;;
71856;SDS011;63344;46.980;28.882;2023-07-09T06:17:14;3.78;;;2.53;;
71856;SDS011;63344;46.980;28.882;2023-07-09T06:19:42;3.30;;;2.00;;
71856;SDS011;63344;46.980;28.882;2023-07-09T06:22:09;4.03;;;2.63;;
71856;SDS011;63344;46.980;28.882;2023-07-09T06:24:44;3.10;;;2.70;;
71856;SDS011;63344;46.980;28.882;2023-07-09T06:27:19;4.78;;;2.80;;
71856;SDS011;63344;46.980;28.882;2023-07-09T06:29:46;3.63;;;2.50;;
71856;SDS011;63344;46.980;28.882;2023-07-09T06:32:14;4.38;;;3.15;;
71856;SDS011;63344;46.980;28.882;2023-07-09T06:34:41;3.83;;;2.28;;
71856;SDS011;63344;46.980;28.882;2023-07-09T06:37:08;5.88;;;3.13;;
71856;SDS011;63344;46.980;28.882;2023-07-09T06:39:36;3.25;;;2.60;;
71856;SDS011;63344;46.980;28.882;2023-07-09T06:42:03;9.90;;;3.58;;
71856;SDS011;63344;46.980;28.882;2023-07-09T06:44:32;7.80;;;2.92;;
71856;SDS011;63344;46.980;28.882;2023-07-09T06:46:59;2.47;;;2.22;;
71856;SDS011;63344;46.980;28.882;2023-07-09T06:49:27;4.60;;;2.83;;
71856;SDS011;63344;46.980;28.882;2023-07-09T06:51:55;3.42;;;2.03;;
71856;SDS011;63344;46.980;28.882;2023-07-09T06:54:22;6.68;;;3.47;;
71856;SDS011;63344;46.980;28.882;2023-07-09T06:56:53;4.18;;;2.85;;
71856;SDS011;63344;46.980;28.882;2023-07-09T06:59:23;3.80;;;1.95;;
71856;SDS011;63344;46.980;28.882;2023-07-09T07:01:50;4.60;;;2.58;;
71856;SDS011;63344;46.980;28.882;2023-07-09T07:04:17;4.78;;;2.47;;
71856;SDS011;63344;46.980;28.882;2023-07-09T07:06:45;3.78;;;2.63;;
71856;SDS011;63344;46.980;28.882;2023-07-09T07:09:17;3.30;;;2.30;;
71856;SDS011;63344;46.980;28.882;2023-07-09T07:11:44;5.00;;;2.60;;
71856;SDS011;63344;46.980;28.882;2023-07-09T07:14:12;6.45;;;2.60;;
71856;SDS011;63344;46.980;28.882;2023-07-09T07:16:39;7.45;;;3.10;;
71856;SDS011;63344;46.980;28.882;2023-07-09T07:19:06;6.72;;;3.00;;
71856;SDS011;63344;46.980;28.882;2023-07-09T07:21:34;3.40;;;2.10;;
71856;SDS011;63344;46.980;28.882;2023-07-09T07:24:01;3.75;;;2.42;;
71856;SDS011;63344;46.980;28.882;2023-07-09T07:26:30;6.47;;;2.97;;
71856;SDS011;63344;46.980;28.882;2023-07-09T07:28:57;2.63;;;2.10;;
71856;SDS011;63344;46.980;28.882;2023-07-09T07:31:24;2.78;;;1.40;;
71856;SDS011;63344;46.980;28.882;2023-07-09T07:33:52;3.13;;;2.42;;
71856;SDS011;63344;46.980;28.882;2023-07-09T07:36:19;4.13;;;2.28;;
71856;SDS011;63344;46.980;28.882;2023-07-09T07:38:58;4.32;;;2.50;;
71856;SDS011;63344;46.980;28.882;2023-07-09T07:41:25;2.63;;;1.95;;
71856;SDS011;63344;46.980;28.882;2023-07-09T07:43:54;2.30;;;1.95;;
71856;SDS011;63344;46.980;28.882;2023-07-09T07:46:21;3.08;;;1.70;;
71856;SDS011;63344;46.980;28.882;2023-07-09T07:48:49;2.08;;;1.63;;
71856;SDS011;63344;46.980;28.882;2023-07-09T07:51:21;2.10;;;1.90;;
71856;SDS011;63344;46.980;28.882;2023-07-09T07:53:49;2.50;;;1.88;;
71856;SDS011;63344;46.980;28.882;2023-07-09T07:56:17;6.38;;;2.60;;
71856;SDS011;63344;46.980;28.882;2023-07-09T07:58:45;5.03;;;2.55;;
71856;SDS011;63344;46.980;28.882;2023-07-09T08:01:12;2.30;;;2.08;;
71856;SDS011;63344;46.980;28.882;2023-07-09T08:03:40;4.28;;;2.13;;
71856;SDS011;63344;46.980;28.882;2023-07-09T08:06:09;3.47;;;1.83;;
71856;SDS011;63344;46.980;28.882;2023-07-09T08:08:36;2.13;;;1.90;;
71856;SDS011;63344;46.980;28.882;2023-07-09T08:11:06;3.22;;;2.20;;
71856;SDS011;63344;46.980;28.882;2023-07-09T08:13:36;4.40;;;2.50;;
71856;SDS011;63344;46.980;28.882;2023-07-09T08:16:05;3.72;;;1.90;;
71856;SDS011;63344;46.980;28.882;2023-07-09T08:18:37;2.85;;;1.92;;
71856;SDS011;63344;46.980;28.882;2023-07-09T08:21:05;5.13;;;1.95;;
71856;SDS011;63344;46.980;28.882;2023-07-09T08:23:33;3.33;;;1.83;;
71856;SDS011;63344;46.980;28.882;2023-07-09T08:26:01;2.33;;;2.00;;
71856;SDS011;63344;46.980;28.882;2023-07-09T08:28:30;5.05;;;1.83;;
71856;SDS011;63344;46.980;28.882;2023-07-09T08:30:58;3.63;;;2.30;;
71856;SDS011;63344;46.980;28.882;2023-07-09T08:33:25;3.50;;;2.15;;
71856;SDS011;63344;46.980;28.882;2023-07-09T08:35:53;6.78;;;2.35;;
71856;SDS011;63344;46.980;28.882;2023-07-09T08:38:21;4.20;;;3.30;;
71856;SDS011;63344;46.980;28.882;2023-07-09T08:40:53;5.57;;;3.05;;
71856;SDS011;63344;46.980;28.882;2023-07-09T08:43:30;4.43;;;2.85;;
71856;SDS011;63344;46.980;28.882;2023-07-09T08:48:53;2.97;;;2.78;;
71856;SDS011;63344;46.980;28.882;2023-07-09T08:51:44;5.47;;;2.88;;
71856;SDS011;63344;46.980;28.882;2023-07-09T08:54:28;3.58;;;3.10;;
71856;SDS011;63344;46.980;28.882;2023-07-09T08:56:59;4.35;;;2.80;;
71856;SDS011;63344;46.980;28.882;2023-07-09T08:59:35;3.40;;;2.70;;
71856;SDS011;63344;46.980;28.882;2023-07-09T09:02:03;3.78;;;2.95;;
71856;SDS011;63344;46.980;28.882;2023-07-09T09:04:43;3.38;;;3.17;;
71856;SDS011;63344;46.980;28.882;2023-07-09T09:15:31;3.53;;;3.22;;
71856;SDS011;63344;46.980;28.882;2023-07-09T09:18:42;3.65;;;3.08;;
71856;SDS011;63344;46.980;28.882;2023-07-09T09:25:02;3.50;;;2.47;;
71856;SDS011;63344;46.980;28.882;2023-07-09T09:31:24;3.25;;;3.05;;
71856;SDS011;63344;46.980;28.882;2023-07-09T09:37:23;3.20;;;2.92;;
71856;SDS011;63344;46.980;28.882;2023-07-09T09:40:04;2.75;;;1.90;;
71856;SDS011;63344;46.980;28.882;2023-07-09T09:42:51;2.88;;;2.58;;
71856;SDS011;63344;46.980;28.882;2023-07-09T09:45:37;2.55;;;1.63;;
71856;SDS011;63344;46.980;28.882;2023-07-09T09:51:53;3.92;;;3.38;;
71856;SDS011;63344;46.980;28.882;2023-07-09T09:54:40;3.78;;;3.30;;
71856;SDS011;63344;46.980;28.882;2023-07-09T10:00:30;5.50;;;3.40;;
71856;SDS011;63344;46.980;28.882;2023-07-09T10:09:53;4.00;;;3.05;;
71856;SDS011;63344;46.980;28.882;2023-07-09T10:12:41;3.08;;;2.58;;
71856;SDS011;63344;46.980;28.882;2023-07-09T10:19:32;3.50;;;3.10;;
71856;SDS011;63344;46.980;28.882;2023-07-09T10:23:27;3.45;;;2.55;;
71856;SDS011;63344;46.980;28.882;2023-07-09T10:29:15;3.25;;;2.55;;
71856;SDS011;63344;46.980;28.882;2023-07-09T10:35:38;4.25;;;2.33;;
71856;SDS011;63344;46.980;28.882;2023-07-09T10:39:08;2.78;;;2.58;;
71856;SDS011;63344;46.980;28.882;2023-07-09T10:41:49;3.70;;;2.03;;
71856;SDS011;63344;46.980;28.882;2023-07-09T11:02:32;2.35;;;2.15;;
71856;SDS011;63344;46.980;28.882;2023-07-09T11:05:42;3.58;;;2.10;;
71856;SDS011;63344;46.980;28.882;2023-07-09T11:08:18;2.08;;;1.63;;
71856;SDS011;63344;46.980;28.882;2023-07-09T11:11:15;4.85;;;2.25;;
71856;SDS011;63344;46.980;28.882;2023-07-09T11:14:55;6.75;;;1.95;;
71856;SDS011;63344;46.980;28.882;2023-07-09T11:22:13;2.78;;;2.20;;
71856;SDS011;63344;46.980;28.882;2023-07-09T11:32:17;2.65;;;1.55;;
71856;SDS011;63344;46.980;28.882;2023-07-09T11:35:07;2.42;;;1.92;;
71856;SDS011;63344;46.980;28.882;2023-07-09T11:41:26;1.80;;;1.48;;
71856;SDS011;63344;46.980;28.882;2023-07-09T11:50:48;2.28;;;2.08;;
71856;SDS011;63344;46.980;28.882;2023-07-09T11:58:04;3.83;;;1.58;;
71856;SDS011;63344;46.980;28.882;2023-07-09T12:03:53;3.17;;;1.88;;
71856;SDS011;63344;46.980;28.882;2023-07-09T12:07:05;2.58;;;1.92;;
71856;SDS011;63344;46.980;28.882;2023-07-09T12:28:27;2.40;;;2.20;;
71856;SDS011;63344;46.980;28.882;2023-07-09T12:39:01;2.65;;;1.65;;
71856;SDS011;63344;46.980;28.882;2023-07-09T12:41:41;3.00;;;2.03;;
71856;SDS011;63344;46.980;28.882;2023-07-09T12:44:21;2.97;;;2.15;;
71856;SDS011;63344;46.980;28.882;2023-07-09T12:50:32;4.57;;;2.42;;
71856;SDS011;63344;46.980;28.882;2023-07-09T13:06:03;2.92;;;1.70;;
71856;SDS011;63344;46.980;28.882;2023-07-09T13:13:33;3.33;;;1.73;;
71856;SDS011;63344;46.980;28.882;2023-07-09T13:20:12;2.20;;;2.00;;
71856;SDS011;63344;46.980;28.882;2023-07-09T13:39:04;4.97;;;2.20;;
71856;SDS011;63344;46.980;28.882;2023-07-09T13:42:05;1.83;;;1.58;;
71856;SDS011;63344;46.980;28.882;2023-07-09T13:48:20;2.33;;;1.83;;
71856;SDS011;63344;46.980;28.882;2023-07-09T13:51:19;2.00;;;1.30;;
71856;SDS011;63344;46.980;28.882;2023-07-09T13:57:32;6.22;;;2.47;;
71856;SDS011;63344;46.980;28.882;2023-07-09T14:00:28;3.50;;;2.10;;
71856;SDS011;63344;46.980;28.882;2023-07-09T14:03:29;4.88;;;2.80;;
71856;SDS011;63344;46.980;28.882;2023-07-09T14:06:20;2.33;;;1.90;;
71856;SDS011;63344;46.980;28.882;2023-07-09T14:08:54;4.45;;;2.38;;
71856;SDS011;63344;46.980;28.882;2023-07-09T14:11:54;3.72;;;1.58;;
71856;SDS011;63344;46.980;28.882;2023-07-09T14:14:36;1.80;;;1.50;;
71856;SDS011;63344;46.980;28.882;2023-07-09T14:18:04;3.20;;;1.92;;
71856;SDS011;63344;46.980;28.882;2023-07-09T14:28:01;2.10;;;1.90;;
71856;SDS011;63344;46.980;28.882;2023-07-09T14:36:58;2.60;;;1.83;;
71856;SDS011;63344;46.980;28.882;2023-07-09T14:39:52;3.00;;;1.60;;
71856;SDS011;63344;46.980;28.882;2023-07-09T14:42:52;2.35;;;1.50;;
71856;SDS011;63344;46.980;28.882;2023-07-09T14:56:16;4.00;;;1.45;;
71856;SDS011;63344;46.980;28.882;2023-07-09T14:59:27;3.13;;;1.60;;
71856;SDS011;63344;46.980;28.882;2023-07-09T15:06:12;5.28;;;1.67;;
71856;SDS011;63344;46.980;28.882;2023-07-09T15:09:02;3.17;;;1.75;;
71856;SDS011;63344;46.980;28.882;2023-07-09T15:37:35;1.75;;;1.45;;
71856;SDS011;63344;46.980;28.882;2023-07-09T15:49:03;2.47;;;1.55;;
71856;SDS011;63344;46.980;28.882;2023-07-09T16:00:35;2.13;;;1.85;;
71856;SDS011;63344;46.980;28.882;2023-07-09T16:03:04;2.28;;;1.80;;
71856;SDS011;63344;46.980;28.882;2023-07-09T16:05:47;2.33;;;1.80;;
71856;SDS011;63344;46.980;28.882;2023-07-09T16:08:15;4.10;;;1.92;;
71856;SDS011;63344;46.980;28.882;2023-07-09T16:14:34;3.78;;;1.45;;
71856;SDS011;63344;46.980;28.882;2023-07-09T16:28:33;3.00;;;1.60;;
71856;SDS011;63344;46.980;28.882;2023-07-09T16:49:46;3.17;;;1.77;;
71856;SDS011;63344;46.980;28.882;2023-07-09T16:52:51;1.65;;;1.38;;
71856;SDS011;63344;46.980;28.882;2023-07-09T16:55:34;1.77;;;1.38;;
71856;SDS011;63344;46.980;28.882;2023-07-09T16:58:18;2.10;;;1.80;;
71856;SDS011;63344;46.980;28.882;2023-07-09T17:01:10;2.03;;;1.50;;
71856;SDS011;63344;46.980;28.882;2023-07-09T17:05:02;3.95;;;1.98;;
71856;SDS011;63344;46.980;28.882;2023-07-09T17:11:58;1.63;;;1.40;;
71856;SDS011;63344;46.980;28.882;2023-07-09T17:14:53;1.35;;;1.25;;
71856;SDS011;63344;46.980;28.882;2023-07-09T17:21:58;1.70;;;1.13;;
71856;SDS011;63344;46.980;28.882;2023-07-09T17:25:23;4.18;;;1.70;;
71856;SDS011;63344;46.980;28.882;2023-07-09T17:28:21;3.13;;;1.13;;
71856;SDS011;63344;46.980;28.882;2023-07-09T17:31:23;3.33;;;1.80;;
71856;SDS011;63344;46.980;28.882;2023-07-09T17:34:05;2.60;;;1.80;;
71856;SDS011;63344;46.980;28.882;2023-07-09T17:40:28;1.40;;;1.23;;
71856;SDS011;63344;46.980;28.882;2023-07-09T17:47:24;3.17;;;1.75;;
71856;SDS011;63344;46.980;28.882;2023-07-09T17:49:52;3.75;;;1.80;;
71856;SDS011;63344;46.980;28.882;2023-07-09T17:52:20;5.40;;;1.50;;
71856;SDS011;63344;46.980;28.882;2023-07-09T17:58:31;1.95;;;1.70;;
71856;SDS011;63344;46.980;28.882;2023-07-09T18:01:22;3.03;;;1.85;;
71856;SDS011;63344;46.980;28.882;2023-07-09T18:07:30;4.60;;;2.10;;
71856;SDS011;63344;46.980;28.882;2023-07-09T18:10:36;4.20;;;2.00;;
71856;SDS011;63344;46.980;28.882;2023-07-09T18:13:15;4.18;;;1.95;;
71856;SDS011;63344;46.980;28.882;2023-07-09T18:19:38;7.38;;;2.40;;
71856;SDS011;63344;46.980;28.882;2023-07-09T18:29:51;5.18;;;3.00;;
71856;SDS011;63344;46.980;28.882;2023-07-09T18:33:53;6.97;;;3.33;;
71856;SDS011;63344;46.980;28.882;2023-07-09T18:44:26;4.95;;;2.50;;
71856;SDS011;63344;46.980;28.882;2023-07-09T18:46:59;2.80;;;2.40;;
71856;SDS011;63344;46.980;28.882;2023-07-09T19:00:48;3.97;;;2.45;;
71856;SDS011;63344;46.980;28.882;2023-07-09T19:07:42;4.30;;;2.08;;
71856;SDS011;63344;46.980;28.882;2023-07-09T19:15:15;4.65;;;2.75;;
71856;SDS011;63344;46.980;28.882;2023-07-09T19:22:12;4.35;;;2.38;;
71856;SDS011;63344;46.980;28.882;2023-07-09T19:25:18;9.80;;;3.22;;
71856;SDS011;63344;46.980;28.882;2023-07-09T19:40:34;4.22;;;1.63;;
71856;SDS011;63344;46.980;28.882;2023-07-09T20:00:46;5.30;;;2.75;;
71856;SDS011;63344;46.980;28.882;2023-07-09T20:03:32;4.85;;;2.95;;
71856;SDS011;63344;46.980;28.882;2023-07-09T20:06:25;5.00;;;2.45;;
71856;SDS011;63344;46.980;28.882;2023-07-09T20:12:32;6.82;;;2.22;;
71856;SDS011;63344;46.980;28.882;2023-07-09T20:15:17;5.35;;;2.65;;
71856;SDS011;63344;46.980;28.882;2023-07-09T20:17:56;5.13;;;2.78;;
71856;SDS011;63344;46.980;28.882;2023-07-09T20:20:33;6.78;;;3.50;;
71856;SDS011;63344;46.980;28.882;2023-07-09T20:23:20;8.77;;;2.88;;
71856;SDS011;63344;46.980;28.882;2023-07-09T20:26:42;5.97;;;2.90;;
71856;SDS011;63344;46.980;28.882;2023-07-09T20:29:31;6.90;;;3.20;;
71856;SDS011;63344;46.980;28.882;2023-07-09T20:32:21;3.45;;;2.50;;
71856;SDS011;63344;46.980;28.882;2023-07-09T20:35:15;8.88;;;3.88;;
71856;SDS011;63344;46.980;28.882;2023-07-09T20:37:58;7.85;;;3.30;;
71856;SDS011;63344;46.980;28.882;2023-07-09T20:41:04;8.93;;;4.78;;
71856;SDS011;63344;46.980;28.882;2023-07-09T20:43:37;11.45;;;4.97;;
71856;SDS011;63344;46.980;28.882;2023-07-09T20:49:33;12.93;;;4.32;;
71856;SDS011;63344;46.980;28.882;2023-07-09T20:52:03;8.48;;;4.03;;
71856;SDS011;63344;46.980;28.882;2023-07-09T20:54:34;7.65;;;3.78;;
71856;SDS011;63344;46.980;28.882;2023-07-09T20:57:04;6.35;;;3.33;;
71856;SDS011;63344;46.980;28.882;2023-07-09T20:59:47;10.27;;;4.10;;
71856;SDS011;63344;46.980;28.882;2023-07-09T21:02:19;17.42;;;4.68;;
71856;SDS011;63344;46.980;28.882;2023-07-09T21:04:50;12.98;;;4.07;;
71856;SDS011;63344;46.980;28.882;2023-07-09T21:07:22;11.40;;;4.15;;
71856;SDS011;63344;46.980;28.882;2023-07-09T21:09:52;11.38;;;3.72;;
71856;SDS011;63344;46.980;28.882;2023-07-09T21:12:19;10.77;;;4.65;;
71856;SDS011;63344;46.980;28.882;2023-07-09T21:14:48;11.27;;;4.30;;
71856;SDS011;63344;46.980;28.882;2023-07-09T21:17:16;10.35;;;4.28;;
71856;SDS011;63344;46.980;28.882;2023-07-09T21:19:49;8.25;;;3.30;;
71856;SDS011;63344;46.980;28.882;2023-07-09T21:22:17;12.73;;;3.70;;
71856;SDS011;63344;46.980;28.882;2023-07-09T21:24:47;5.80;;;3.20;;
71856;SDS011;63344;46.980;28.882;2023-07-09T21:27:16;5.28;;;3.20;;
71856;SDS011;63344;46.980;28.882;2023-07-09T21:32:20;11.70;;;3.85;;
71856;SDS011;63344;46.980;28.882;2023-07-09T21:34:57;5.60;;;3.08;;
71856;SDS011;63344;46.980;28.882;2023-07-09T21:37:43;9.18;;;4.07;;
71856;SDS011;63344;46.980;28.882;2023-07-09T21:43:00;10.85;;;4.10;;
71856;SDS011;63344;46.980;28.882;2023-07-09T21:45:34;9.68;;;4.18;;
71856;SDS011;63344;46.980;28.882;2023-07-09T21:48:05;6.63;;;3.53;;
71856;SDS011;63344;46.980;28.882;2023-07-09T21:50:38;7.30;;;4.00;;
71856;SDS011;63344;46.980;28.882;2023-07-09T21:56:20;6.32;;;3.72;;
71856;SDS011;63344;46.980;28.882;2023-07-09T21:58:48;6.60;;;4.28;;
71856;SDS011;63344;46.980;28.882;2023-07-09T22:04:47;5.80;;;3.88;;
71856;SDS011;63344;46.980;28.882;2023-07-09T22:07:20;8.95;;;4.03;;